sensor_id;sensor_type;location;lat;lon;timestamp;P1;durP1;ratioP1;P2;durP2;ratioP2
6432;SDS011;3249;42.690;23.260;2023-05-07T00:00:53;12.83;;;10.73;;
6432;SDS011;3249;42.690;23.260;2023-05-07T00:03:27;11.60;;;10.30;;
6432;SDS011;3249;42.690;23.260;2023-05-07T00:05:57;11.90;;;10.67;;
6432;SDS011;3249;42.690;23.260;2023-05-07T00:08:26;11.37;;;10.23;;
6432;SDS011;3249;42.690;23.260;2023-05-07T00:10:55;11.23;;;10.10;;
6432;SDS011;3249;42.690;23.260;2023-05-07T00:13:24;12.20;;;11.07;;
6432;SDS011;3249;42.690;23.260;2023-05-07T00:15:56;11.37;;;10.30;;
6432;SDS011;3249;42.690;23.260;2023-05-07T00:18:28;11.83;;;10.73;;
6432;SDS011;3249;42.690;23.260;2023-05-07T00:20:57;12.43;;;11.23;;
6432;SDS011;3249;42.690;23.260;2023-05-07T00:23:26;12.17;;;10.83;;
6432;SDS011;3249;42.690;23.260;2023-05-07T00:25:55;11.30;;;10.13;;
6432;SDS011;3249;42.690;23.260;2023-05-07T00:28:25;11.97;;;10.83;;
6432;SDS011;3249;42.690;23.260;2023-05-07T00:30:54;12.87;;;11.30;;
6432;SDS011;3249;42.690;23.260;2023-05-07T00:33:23;12.03;;;10.83;;
6432;SDS011;3249;42.690;23.260;2023-05-07T00:35:55;10.60;;;9.57;;
6432;SDS011;3249;42.690;23.260;2023-05-07T00:38:24;11.33;;;9.90;;
6432;SDS011;3249;42.690;23.260;2023-05-07T00:40:53;11.77;;;10.63;;
6432;SDS011;3249;42.690;23.260;2023-05-07T00:43:21;12.13;;;10.27;;
6432;SDS011;3249;42.690;23.260;2023-05-07T00:45:51;10.93;;;9.87;;
6432;SDS011;3249;42.690;23.260;2023-05-07T00:48:20;12.40;;;11.13;;
6432;SDS011;3249;42.690;23.260;2023-05-07T00:50:49;13.57;;;10.77;;
6432;SDS011;3249;42.690;23.260;2023-05-07T00:53:21;13.13;;;11.27;;
6432;SDS011;3249;42.690;23.260;2023-05-07T00:55:51;11.43;;;10.43;;
6432;SDS011;3249;42.690;23.260;2023-05-07T00:58:20;11.77;;;10.57;;
6432;SDS011;3249;42.690;23.260;2023-05-07T01:00:51;10.63;;;9.73;;
6432;SDS011;3249;42.690;23.260;2023-05-07T01:03:20;11.07;;;10.13;;
6432;SDS011;3249;42.690;23.260;2023-05-07T01:05:49;11.27;;;10.17;;
6432;SDS011;3249;42.690;23.260;2023-05-07T01:08:22;12.07;;;10.30;;
6432;SDS011;3249;42.690;23.260;2023-05-07T01:10:54;13.67;;;11.10;;
6432;SDS011;3249;42.690;23.260;2023-05-07T01:13:23;11.00;;;10.00;;
6432;SDS011;3249;42.690;23.260;2023-05-07T01:15:53;11.33;;;10.20;;
6432;SDS011;3249;42.690;23.260;2023-05-07T01:18:22;10.70;;;9.80;;
6432;SDS011;3249;42.690;23.260;2023-05-07T01:20:52;12.20;;;11.13;;
6432;SDS011;3249;42.690;23.260;2023-05-07T01:23:26;11.47;;;10.47;;
6432;SDS011;3249;42.690;23.260;2023-05-07T01:25:56;11.70;;;10.60;;
6432;SDS011;3249;42.690;23.260;2023-05-07T01:28:27;12.50;;;11.23;;
6432;SDS011;3249;42.690;23.260;2023-05-07T01:31:00;15.00;;;11.03;;
6432;SDS011;3249;42.690;23.260;2023-05-07T01:33:34;12.00;;;10.77;;
6432;SDS011;3249;42.690;23.260;2023-05-07T01:36:04;12.03;;;10.83;;
6432;SDS011;3249;42.690;23.260;2023-05-07T01:38:38;14.17;;;11.47;;
6432;SDS011;3249;42.690;23.260;2023-05-07T01:41:09;15.47;;;10.93;;
6432;SDS011;3249;42.690;23.260;2023-05-07T01:43:40;11.00;;;9.90;;
6432;SDS011;3249;42.690;23.260;2023-05-07T01:46:11;13.10;;;11.73;;
6432;SDS011;3249;42.690;23.260;2023-05-07T01:48:41;13.00;;;11.70;;
6432;SDS011;3249;42.690;23.260;2023-05-07T01:51:11;13.50;;;12.13;;
6432;SDS011;3249;42.690;23.260;2023-05-07T01:53:42;13.10;;;11.53;;
6432;SDS011;3249;42.690;23.260;2023-05-07T01:56:16;16.43;;;12.30;;
6432;SDS011;3249;42.690;23.260;2023-05-07T01:58:47;14.97;;;12.97;;
6432;SDS011;3249;42.690;23.260;2023-05-07T02:01:16;13.50;;;12.20;;
6432;SDS011;3249;42.690;23.260;2023-05-07T02:03:46;13.40;;;12.10;;
6432;SDS011;3249;42.690;23.260;2023-05-07T02:06:21;13.63;;;12.17;;
6432;SDS011;3249;42.690;23.260;2023-05-07T02:08:56;14.33;;;12.30;;
6432;SDS011;3249;42.690;23.260;2023-05-07T02:11:27;14.73;;;12.77;;
6432;SDS011;3249;42.690;23.260;2023-05-07T02:13:56;14.03;;;12.03;;
6432;SDS011;3249;42.690;23.260;2023-05-07T02:16:25;15.70;;;12.87;;
6432;SDS011;3249;42.690;23.260;2023-05-07T02:18:54;13.13;;;11.47;;
6432;SDS011;3249;42.690;23.260;2023-05-07T02:21:24;14.27;;;12.87;;
6432;SDS011;3249;42.690;23.260;2023-05-07T02:23:53;13.63;;;12.27;;
6432;SDS011;3249;42.690;23.260;2023-05-07T02:26:25;17.30;;;12.50;;
6432;SDS011;3249;42.690;23.260;2023-05-07T02:28:54;12.83;;;11.63;;
6432;SDS011;3249;42.690;23.260;2023-05-07T02:31:23;13.80;;;11.43;;
6432;SDS011;3249;42.690;23.260;2023-05-07T02:33:52;12.40;;;11.20;;
6432;SDS011;3249;42.690;23.260;2023-05-07T02:36:21;13.93;;;12.53;;
6432;SDS011;3249;42.690;23.260;2023-05-07T02:38:59;12.87;;;11.77;;
6432;SDS011;3249;42.690;23.260;2023-05-07T02:41:30;13.33;;;11.97;;
6432;SDS011;3249;42.690;23.260;2023-05-07T02:43:59;13.80;;;12.50;;
6432;SDS011;3249;42.690;23.260;2023-05-07T02:46:28;14.73;;;13.43;;
6432;SDS011;3249;42.690;23.260;2023-05-07T02:49:02;12.83;;;11.63;;
6432;SDS011;3249;42.690;23.260;2023-05-07T02:51:32;13.97;;;12.33;;
6432;SDS011;3249;42.690;23.260;2023-05-07T02:54:04;13.23;;;11.83;;
6432;SDS011;3249;42.690;23.260;2023-05-07T02:56:35;13.07;;;11.77;;
6432;SDS011;3249;42.690;23.260;2023-05-07T02:59:04;12.83;;;11.70;;
6432;SDS011;3249;42.690;23.260;2023-05-07T03:01:38;13.97;;;12.67;;
6432;SDS011;3249;42.690;23.260;2023-05-07T03:04:10;12.33;;;11.13;;
6432;SDS011;3249;42.690;23.260;2023-05-07T03:06:39;14.17;;;12.40;;
6432;SDS011;3249;42.690;23.260;2023-05-07T03:09:08;12.60;;;11.50;;
6432;SDS011;3249;42.690;23.260;2023-05-07T03:11:40;14.70;;;13.20;;
6432;SDS011;3249;42.690;23.260;2023-05-07T03:14:09;14.00;;;11.93;;
6432;SDS011;3249;42.690;23.260;2023-05-07T03:16:39;18.37;;;12.67;;
6432;SDS011;3249;42.690;23.260;2023-05-07T03:19:08;13.43;;;11.90;;
6432;SDS011;3249;42.690;23.260;2023-05-07T03:21:36;15.37;;;13.87;;
6432;SDS011;3249;42.690;23.260;2023-05-07T03:24:05;13.53;;;12.13;;
6432;SDS011;3249;42.690;23.260;2023-05-07T03:26:35;14.67;;;12.80;;
6432;SDS011;3249;42.690;23.260;2023-05-07T03:29:07;14.93;;;12.80;;
6432;SDS011;3249;42.690;23.260;2023-05-07T03:31:36;15.90;;;13.50;;
6432;SDS011;3249;42.690;23.260;2023-05-07T03:34:05;16.57;;;13.57;;
6432;SDS011;3249;42.690;23.260;2023-05-07T03:36:34;14.90;;;12.77;;
6432;SDS011;3249;42.690;23.260;2023-05-07T03:39:06;15.07;;;12.60;;
6432;SDS011;3249;42.690;23.260;2023-05-07T03:41:39;13.67;;;12.27;;
6432;SDS011;3249;42.690;23.260;2023-05-07T03:44:11;14.67;;;12.37;;
6432;SDS011;3249;42.690;23.260;2023-05-07T03:46:40;13.80;;;12.40;;
6432;SDS011;3249;42.690;23.260;2023-05-07T03:49:10;13.57;;;12.23;;
6432;SDS011;3249;42.690;23.260;2023-05-07T03:51:39;13.80;;;11.93;;
6432;SDS011;3249;42.690;23.260;2023-05-07T03:54:09;12.77;;;11.43;;
6432;SDS011;3249;42.690;23.260;2023-05-07T03:56:42;13.27;;;12.03;;
6432;SDS011;3249;42.690;23.260;2023-05-07T03:59:14;13.83;;;12.53;;
6432;SDS011;3249;42.690;23.260;2023-05-07T04:01:45;13.00;;;11.80;;
6432;SDS011;3249;42.690;23.260;2023-05-07T04:04:17;12.10;;;10.80;;
6432;SDS011;3249;42.690;23.260;2023-05-07T04:06:46;11.87;;;10.87;;
6432;SDS011;3249;42.690;23.260;2023-05-07T04:09:15;16.03;;;10.70;;
6432;SDS011;3249;42.690;23.260;2023-05-07T04:11:46;11.93;;;10.83;;
6432;SDS011;3249;42.690;23.260;2023-05-07T04:14:17;12.07;;;10.67;;
6432;SDS011;3249;42.690;23.260;2023-05-07T04:16:47;12.63;;;11.53;;
6432;SDS011;3249;42.690;23.260;2023-05-07T04:19:17;11.90;;;9.87;;
6432;SDS011;3249;42.690;23.260;2023-05-07T04:21:49;12.97;;;10.43;;
6432;SDS011;3249;42.690;23.260;2023-05-07T04:24:18;11.33;;;10.17;;
6432;SDS011;3249;42.690;23.260;2023-05-07T04:26:47;11.47;;;10.47;;
6432;SDS011;3249;42.690;23.260;2023-05-07T04:29:19;12.40;;;10.73;;
6432;SDS011;3249;42.690;23.260;2023-05-07T04:31:48;11.27;;;10.27;;
6432;SDS011;3249;42.690;23.260;2023-05-07T04:34:18;12.30;;;10.30;;
6432;SDS011;3249;42.690;23.260;2023-05-07T04:36:47;15.47;;;10.33;;
6432;SDS011;3249;42.690;23.260;2023-05-07T04:39:16;16.20;;;10.60;;
6432;SDS011;3249;42.690;23.260;2023-05-07T04:41:47;12.53;;;11.03;;
6432;SDS011;3249;42.690;23.260;2023-05-07T04:44:16;12.60;;;11.30;;
6432;SDS011;3249;42.690;23.260;2023-05-07T04:46:49;11.63;;;10.47;;
6432;SDS011;3249;42.690;23.260;2023-05-07T04:49:19;11.27;;;10.17;;
6432;SDS011;3249;42.690;23.260;2023-05-07T04:51:49;15.50;;;11.80;;
6432;SDS011;3249;42.690;23.260;2023-05-07T04:54:20;12.73;;;11.17;;
6432;SDS011;3249;42.690;23.260;2023-05-07T04:56:51;12.23;;;11.13;;
6432;SDS011;3249;42.690;23.260;2023-05-07T04:59:20;12.77;;;11.43;;
6432;SDS011;3249;42.690;23.260;2023-05-07T05:01:52;13.80;;;11.33;;
6432;SDS011;3249;42.690;23.260;2023-05-07T05:04:21;12.07;;;11.07;;
6432;SDS011;3249;42.690;23.260;2023-05-07T05:06:50;11.60;;;10.50;;
6432;SDS011;3249;42.690;23.260;2023-05-07T05:09:20;12.70;;;11.40;;
6432;SDS011;3249;42.690;23.260;2023-05-07T05:11:50;13.27;;;11.90;;
6432;SDS011;3249;42.690;23.260;2023-05-07T05:14:19;11.93;;;10.70;;
6432;SDS011;3249;42.690;23.260;2023-05-07T05:16:52;12.47;;;11.30;;
6432;SDS011;3249;42.690;23.260;2023-05-07T05:19:21;14.03;;;11.93;;
6432;SDS011;3249;42.690;23.260;2023-05-07T05:21:51;12.73;;;11.40;;
6432;SDS011;3249;42.690;23.260;2023-05-07T05:24:19;13.43;;;12.00;;
6432;SDS011;3249;42.690;23.260;2023-05-07T05:26:49;13.30;;;11.97;;
6432;SDS011;3249;42.690;23.260;2023-05-07T05:29:18;14.83;;;13.37;;
6432;SDS011;3249;42.690;23.260;2023-05-07T05:31:47;12.60;;;11.40;;
6432;SDS011;3249;42.690;23.260;2023-05-07T05:34:20;13.77;;;12.57;;
6432;SDS011;3249;42.690;23.260;2023-05-07T05:36:49;14.43;;;13.00;;
6432;SDS011;3249;42.690;23.260;2023-05-07T05:39:18;13.30;;;12.20;;
6432;SDS011;3249;42.690;23.260;2023-05-07T05:41:48;14.43;;;13.03;;
6432;SDS011;3249;42.690;23.260;2023-05-07T05:44:36;15.47;;;12.63;;
6432;SDS011;3249;42.690;23.260;2023-05-07T05:47:06;13.67;;;12.37;;
6432;SDS011;3249;42.690;23.260;2023-05-07T05:49:37;14.50;;;12.90;;
6432;SDS011;3249;42.690;23.260;2023-05-07T05:52:11;14.07;;;12.60;;
6432;SDS011;3249;42.690;23.260;2023-05-07T05:54:42;13.37;;;12.10;;
6432;SDS011;3249;42.690;23.260;2023-05-07T05:57:12;13.13;;;11.77;;
6432;SDS011;3249;42.690;23.260;2023-05-07T05:59:41;13.27;;;11.87;;
6432;SDS011;3249;42.690;23.260;2023-05-07T06:02:11;13.03;;;11.73;;
6432;SDS011;3249;42.690;23.260;2023-05-07T06:04:43;14.33;;;12.83;;
6432;SDS011;3249;42.690;23.260;2023-05-07T06:07:16;12.53;;;11.27;;
6432;SDS011;3249;42.690;23.260;2023-05-07T06:09:45;12.53;;;11.27;;
6432;SDS011;3249;42.690;23.260;2023-05-07T06:12:15;12.70;;;11.60;;
6432;SDS011;3249;42.690;23.260;2023-05-07T06:14:44;12.27;;;11.23;;
6432;SDS011;3249;42.690;23.260;2023-05-07T06:17:13;14.00;;;11.03;;
6432;SDS011;3249;42.690;23.260;2023-05-07T06:19:45;15.30;;;12.13;;
6432;SDS011;3249;42.690;23.260;2023-05-07T06:22:17;12.50;;;11.20;;
6432;SDS011;3249;42.690;23.260;2023-05-07T06:24:46;11.67;;;10.60;;
6432;SDS011;3249;42.690;23.260;2023-05-07T06:27:15;12.27;;;10.83;;
6432;SDS011;3249;42.690;23.260;2023-05-07T06:29:45;11.90;;;10.90;;
6432;SDS011;3249;42.690;23.260;2023-05-07T06:32:16;12.20;;;11.07;;
6432;SDS011;3249;42.690;23.260;2023-05-07T06:34:48;14.27;;;10.97;;
6432;SDS011;3249;42.690;23.260;2023-05-07T06:37:18;12.33;;;11.30;;
6432;SDS011;3249;42.690;23.260;2023-05-07T06:40:08;11.80;;;10.80;;
6432;SDS011;3249;42.690;23.260;2023-05-07T06:42:39;12.67;;;11.40;;
6432;SDS011;3249;42.690;23.260;2023-05-07T06:45:33;12.60;;;11.07;;
6432;SDS011;3249;42.690;23.260;2023-05-07T06:48:05;15.27;;;10.97;;
6432;SDS011;3249;42.690;23.260;2023-05-07T06:50:46;13.37;;;10.97;;
6432;SDS011;3249;42.690;23.260;2023-05-07T06:53:17;14.70;;;11.43;;
6432;SDS011;3249;42.690;23.260;2023-05-07T06:55:49;13.37;;;11.77;;
6432;SDS011;3249;42.690;23.260;2023-05-07T06:58:20;12.80;;;11.67;;
6432;SDS011;3249;42.690;23.260;2023-05-07T07:00:50;12.13;;;10.97;;
6432;SDS011;3249;42.690;23.260;2023-05-07T07:03:21;12.10;;;10.90;;
6432;SDS011;3249;42.690;23.260;2023-05-07T07:05:57;12.57;;;11.27;;
6432;SDS011;3249;42.690;23.260;2023-05-07T07:08:29;11.53;;;10.27;;
6432;SDS011;3249;42.690;23.260;2023-05-07T07:11:02;13.23;;;11.87;;
6432;SDS011;3249;42.690;23.260;2023-05-07T07:13:34;13.43;;;12.23;;
6432;SDS011;3249;42.690;23.260;2023-05-07T07:16:03;15.80;;;11.73;;
6432;SDS011;3249;42.690;23.260;2023-05-07T07:18:32;17.17;;;11.83;;
6432;SDS011;3249;42.690;23.260;2023-05-07T07:21:06;13.67;;;12.40;;
6432;SDS011;3249;42.690;23.260;2023-05-07T07:23:35;14.03;;;12.70;;
6432;SDS011;3249;42.690;23.260;2023-05-07T07:26:04;14.37;;;12.97;;
6432;SDS011;3249;42.690;23.260;2023-05-07T07:28:33;14.27;;;11.77;;
6432;SDS011;3249;42.690;23.260;2023-05-07T07:31:03;16.37;;;11.60;;
6432;SDS011;3249;42.690;23.260;2023-05-07T07:33:32;13.00;;;11.67;;
6432;SDS011;3249;42.690;23.260;2023-05-07T07:36:02;19.37;;;14.07;;
6432;SDS011;3249;42.690;23.260;2023-05-07T07:38:33;12.83;;;11.70;;
6432;SDS011;3249;42.690;23.260;2023-05-07T07:41:03;13.63;;;12.33;;
6432;SDS011;3249;42.690;23.260;2023-05-07T07:43:33;13.93;;;12.63;;
6432;SDS011;3249;42.690;23.260;2023-05-07T07:46:03;16.07;;;12.47;;
6432;SDS011;3249;42.690;23.260;2023-05-07T07:48:33;14.33;;;12.50;;
6432;SDS011;3249;42.690;23.260;2023-05-07T07:51:01;14.30;;;12.90;;
6432;SDS011;3249;42.690;23.260;2023-05-07T07:53:33;15.47;;;12.80;;
6432;SDS011;3249;42.690;23.260;2023-05-07T07:56:03;16.17;;;12.43;;
6432;SDS011;3249;42.690;23.260;2023-05-07T07:58:34;14.50;;;11.87;;
6432;SDS011;3249;42.690;23.260;2023-05-07T08:01:05;11.67;;;10.57;;
6432;SDS011;3249;42.690;23.260;2023-05-07T08:03:34;10.70;;;9.70;;
6432;SDS011;3249;42.690;23.260;2023-05-07T08:06:05;11.60;;;10.37;;
6432;SDS011;3249;42.690;23.260;2023-05-07T08:08:38;12.83;;;10.97;;
6432;SDS011;3249;42.690;23.260;2023-05-07T08:11:08;12.60;;;10.80;;
6432;SDS011;3249;42.690;23.260;2023-05-07T08:13:37;10.80;;;9.80;;
6432;SDS011;3249;42.690;23.260;2023-05-07T08:16:07;11.43;;;10.23;;
6432;SDS011;3249;42.690;23.260;2023-05-07T08:18:39;13.97;;;10.47;;
6432;SDS011;3249;42.690;23.260;2023-05-07T08:21:08;11.03;;;9.93;;
6432;SDS011;3249;42.690;23.260;2023-05-07T08:23:41;10.90;;;9.73;;
6432;SDS011;3249;42.690;23.260;2023-05-07T08:26:10;10.57;;;9.57;;
6432;SDS011;3249;42.690;23.260;2023-05-07T08:28:41;10.37;;;9.37;;
6432;SDS011;3249;42.690;23.260;2023-05-07T08:31:12;11.00;;;10.07;;
6432;SDS011;3249;42.690;23.260;2023-05-07T08:33:43;10.23;;;9.33;;
6432;SDS011;3249;42.690;23.260;2023-05-07T08:36:13;10.73;;;9.43;;
6432;SDS011;3249;42.690;23.260;2023-05-07T08:38:47;11.37;;;9.67;;
6432;SDS011;3249;42.690;23.260;2023-05-07T08:41:21;11.60;;;10.50;;
6432;SDS011;3249;42.690;23.260;2023-05-07T08:43:53;10.30;;;9.30;;
6432;SDS011;3249;42.690;23.260;2023-05-07T08:46:26;10.97;;;9.90;;
6432;SDS011;3249;42.690;23.260;2023-05-07T08:49:00;10.53;;;9.63;;
6432;SDS011;3249;42.690;23.260;2023-05-07T08:51:29;18.77;;;9.93;;
6432;SDS011;3249;42.690;23.260;2023-05-07T08:54:04;10.27;;;9.30;;
6432;SDS011;3249;42.690;23.260;2023-05-07T08:56:35;12.03;;;10.67;;
6432;SDS011;3249;42.690;23.260;2023-05-07T08:59:07;11.43;;;10.37;;
6432;SDS011;3249;42.690;23.260;2023-05-07T09:01:41;11.53;;;10.00;;
6432;SDS011;3249;42.690;23.260;2023-05-07T09:04:11;10.37;;;9.47;;
6432;SDS011;3249;42.690;23.260;2023-05-07T09:06:41;11.23;;;9.80;;
6432;SDS011;3249;42.690;23.260;2023-05-07T09:09:16;11.60;;;9.60;;
6432;SDS011;3249;42.690;23.260;2023-05-07T09:11:48;10.30;;;9.40;;
6432;SDS011;3249;42.690;23.260;2023-05-07T09:14:26;15.20;;;10.23;;
6432;SDS011;3249;42.690;23.260;2023-05-07T09:16:56;10.90;;;9.60;;
6432;SDS011;3249;42.690;23.260;2023-05-07T09:19:26;10.47;;;9.13;;
6432;SDS011;3249;42.690;23.260;2023-05-07T09:22:00;10.40;;;9.13;;
6432;SDS011;3249;42.690;23.260;2023-05-07T09:25:08;9.20;;;8.50;;
6432;SDS011;3249;42.690;23.260;2023-05-07T09:27:38;10.27;;;9.27;;
6432;SDS011;3249;42.690;23.260;2023-05-07T09:30:10;10.00;;;8.90;;
6432;SDS011;3249;42.690;23.260;2023-05-07T09:32:41;10.93;;;8.77;;
6432;SDS011;3249;42.690;23.260;2023-05-07T09:35:17;7.93;;;7.23;;
6432;SDS011;3249;42.690;23.260;2023-05-07T09:37:52;7.93;;;7.17;;
6432;SDS011;3249;42.690;23.260;2023-05-07T09:40:28;10.50;;;8.87;;
6432;SDS011;3249;42.690;23.260;2023-05-07T09:43:10;7.63;;;6.93;;
6432;SDS011;3249;42.690;23.260;2023-05-07T09:45:52;7.60;;;6.93;;
6432;SDS011;3249;42.690;23.260;2023-05-07T09:48:24;11.03;;;10.13;;
6432;SDS011;3249;42.690;23.260;2023-05-07T09:50:56;7.80;;;7.07;;
6432;SDS011;3249;42.690;23.260;2023-05-07T09:53:33;7.33;;;6.70;;
6432;SDS011;3249;42.690;23.260;2023-05-07T09:56:07;7.70;;;7.10;;
6432;SDS011;3249;42.690;23.260;2023-05-07T09:58:36;8.03;;;7.23;;
6432;SDS011;3249;42.690;23.260;2023-05-07T10:01:08;7.03;;;6.37;;
6432;SDS011;3249;42.690;23.260;2023-05-07T10:03:41;5.77;;;5.37;;
6432;SDS011;3249;42.690;23.260;2023-05-07T10:06:12;33.93;;;30.33;;
6432;SDS011;3249;42.690;23.260;2023-05-07T10:08:43;12.77;;;7.93;;
6432;SDS011;3249;42.690;23.260;2023-05-07T10:11:16;6.53;;;6.00;;
6432;SDS011;3249;42.690;23.260;2023-05-07T10:13:46;5.53;;;5.13;;
6432;SDS011;3249;42.690;23.260;2023-05-07T10:16:16;6.93;;;5.60;;
6432;SDS011;3249;42.690;23.260;2023-05-07T10:18:47;6.07;;;5.57;;
6432;SDS011;3249;42.690;23.260;2023-05-07T10:21:22;5.80;;;5.33;;
6432;SDS011;3249;42.690;23.260;2023-05-07T10:23:58;5.37;;;4.87;;
6432;SDS011;3249;42.690;23.260;2023-05-07T10:26:34;6.83;;;5.10;;
6432;SDS011;3249;42.690;23.260;2023-05-07T10:29:06;5.93;;;5.30;;
6432;SDS011;3249;42.690;23.260;2023-05-07T10:31:44;5.10;;;4.70;;
6432;SDS011;3249;42.690;23.260;2023-05-07T10:34:25;8.13;;;5.53;;
6432;SDS011;3249;42.690;23.260;2023-05-07T10:36:58;6.33;;;5.80;;
6432;SDS011;3249;42.690;23.260;2023-05-07T10:39:28;4.93;;;4.63;;
6432;SDS011;3249;42.690;23.260;2023-05-07T10:42:09;5.17;;;4.80;;
6432;SDS011;3249;42.690;23.260;2023-05-07T10:44:46;6.13;;;5.40;;
6432;SDS011;3249;42.690;23.260;2023-05-07T10:47:22;6.43;;;5.93;;
6432;SDS011;3249;42.690;23.260;2023-05-07T11:02:21;5.20;;;4.80;;
6432;SDS011;3249;42.690;23.260;2023-05-07T11:08:09;6.63;;;5.10;;
6432;SDS011;3249;42.690;23.260;2023-05-07T11:10:50;5.97;;;5.37;;
6432;SDS011;3249;42.690;23.260;2023-05-07T11:13:52;7.37;;;5.57;;
6432;SDS011;3249;42.690;23.260;2023-05-07T11:16:41;7.13;;;6.30;;
6432;SDS011;3249;42.690;23.260;2023-05-07T11:22:41;5.27;;;4.97;;
6432;SDS011;3249;42.690;23.260;2023-05-07T11:25:34;5.00;;;4.63;;
6432;SDS011;3249;42.690;23.260;2023-05-07T11:28:11;5.37;;;5.03;;
6432;SDS011;3249;42.690;23.260;2023-05-07T11:30:46;6.00;;;5.40;;
6432;SDS011;3249;42.690;23.260;2023-05-07T11:33:21;5.50;;;5.20;;
6432;SDS011;3249;42.690;23.260;2023-05-07T11:35:52;5.60;;;5.17;;
6432;SDS011;3249;42.690;23.260;2023-05-07T11:38:29;6.03;;;5.63;;
6432;SDS011;3249;42.690;23.260;2023-05-07T11:40:59;5.00;;;4.70;;
6432;SDS011;3249;42.690;23.260;2023-05-07T11:43:31;6.43;;;5.53;;
6432;SDS011;3249;42.690;23.260;2023-05-07T11:46:05;5.93;;;5.43;;
6432;SDS011;3249;42.690;23.260;2023-05-07T11:48:38;5.50;;;5.10;;
6432;SDS011;3249;42.690;23.260;2023-05-07T11:51:07;5.37;;;4.97;;
6432;SDS011;3249;42.690;23.260;2023-05-07T11:53:39;5.97;;;5.57;;
6432;SDS011;3249;42.690;23.260;2023-05-07T11:56:09;5.53;;;5.03;;
6432;SDS011;3249;42.690;23.260;2023-05-07T11:58:41;5.23;;;4.93;;
6432;SDS011;3249;42.690;23.260;2023-05-07T12:01:11;5.37;;;4.97;;
6432;SDS011;3249;42.690;23.260;2023-05-07T12:03:44;5.77;;;5.30;;
6432;SDS011;3249;42.690;23.260;2023-05-07T12:06:14;5.70;;;5.30;;
6432;SDS011;3249;42.690;23.260;2023-05-07T12:08:45;5.87;;;5.30;;
6432;SDS011;3249;42.690;23.260;2023-05-07T12:11:15;4.83;;;4.30;;
6432;SDS011;3249;42.690;23.260;2023-05-07T12:13:50;4.73;;;4.43;;
6432;SDS011;3249;42.690;23.260;2023-05-07T12:16:20;5.23;;;4.87;;
6432;SDS011;3249;42.690;23.260;2023-05-07T12:18:53;4.70;;;4.50;;
6432;SDS011;3249;42.690;23.260;2023-05-07T12:21:26;4.77;;;4.50;;
6432;SDS011;3249;42.690;23.260;2023-05-07T12:23:55;4.50;;;4.30;;
6432;SDS011;3249;42.690;23.260;2023-05-07T12:26:25;5.47;;;4.80;;
6432;SDS011;3249;42.690;23.260;2023-05-07T12:28:54;5.17;;;4.87;;
6432;SDS011;3249;42.690;23.260;2023-05-07T12:31:22;4.63;;;4.30;;
6432;SDS011;3249;42.690;23.260;2023-05-07T12:33:56;6.33;;;5.83;;
6432;SDS011;3249;42.690;23.260;2023-05-07T12:36:26;5.60;;;5.10;;
6432;SDS011;3249;42.690;23.260;2023-05-07T12:39:04;4.90;;;4.33;;
6432;SDS011;3249;42.690;23.260;2023-05-07T12:41:36;4.53;;;4.13;;
6432;SDS011;3249;42.690;23.260;2023-05-07T12:44:21;5.27;;;4.93;;
6432;SDS011;3249;42.690;23.260;2023-05-07T12:46:52;5.03;;;4.83;;
6432;SDS011;3249;42.690;23.260;2023-05-07T12:49:23;5.00;;;4.60;;
6432;SDS011;3249;42.690;23.260;2023-05-07T12:51:53;5.27;;;4.87;;
6432;SDS011;3249;42.690;23.260;2023-05-07T12:54:28;9.80;;;8.77;;
6432;SDS011;3249;42.690;23.260;2023-05-07T12:57:01;7.83;;;7.17;;
6432;SDS011;3249;42.690;23.260;2023-05-07T12:59:32;4.80;;;4.47;;
6432;SDS011;3249;42.690;23.260;2023-05-07T13:02:02;4.97;;;4.63;;
6432;SDS011;3249;42.690;23.260;2023-05-07T13:04:34;4.63;;;4.33;;
6432;SDS011;3249;42.690;23.260;2023-05-07T13:07:04;5.77;;;5.27;;
6432;SDS011;3249;42.690;23.260;2023-05-07T13:09:33;5.13;;;4.47;;
6432;SDS011;3249;42.690;23.260;2023-05-07T13:12:02;7.10;;;4.90;;
6432;SDS011;3249;42.690;23.260;2023-05-07T13:14:32;4.57;;;4.17;;
6432;SDS011;3249;42.690;23.260;2023-05-07T13:17:01;4.67;;;4.30;;
6432;SDS011;3249;42.690;23.260;2023-05-07T13:19:30;5.00;;;4.70;;
6432;SDS011;3249;42.690;23.260;2023-05-07T13:22:02;7.80;;;4.60;;
6432;SDS011;3249;42.690;23.260;2023-05-07T13:24:31;4.67;;;4.43;;
6432;SDS011;3249;42.690;23.260;2023-05-07T13:27:00;5.20;;;4.93;;
6432;SDS011;3249;42.690;23.260;2023-05-07T13:29:29;5.87;;;5.47;;
6432;SDS011;3249;42.690;23.260;2023-05-07T13:31:58;5.30;;;4.90;;
6432;SDS011;3249;42.690;23.260;2023-05-07T13:34:27;5.00;;;4.60;;
6432;SDS011;3249;42.690;23.260;2023-05-07T13:36:56;4.13;;;3.93;;
6432;SDS011;3249;42.690;23.260;2023-05-07T13:39:29;5.90;;;5.47;;
6432;SDS011;3249;42.690;23.260;2023-05-07T13:41:58;5.23;;;4.90;;
6432;SDS011;3249;42.690;23.260;2023-05-07T13:44:27;5.00;;;4.70;;
6432;SDS011;3249;42.690;23.260;2023-05-07T13:46:56;5.47;;;4.80;;
6432;SDS011;3249;42.690;23.260;2023-05-07T13:49:25;5.13;;;4.83;;
6432;SDS011;3249;42.690;23.260;2023-05-07T13:51:55;7.20;;;5.17;;
6432;SDS011;3249;42.690;23.260;2023-05-07T13:54:24;7.57;;;5.03;;
6432;SDS011;3249;42.690;23.260;2023-05-07T13:56:56;5.27;;;5.00;;
6432;SDS011;3249;42.690;23.260;2023-05-07T13:59:25;7.70;;;5.17;;
6432;SDS011;3249;42.690;23.260;2023-05-07T14:01:54;5.33;;;5.00;;
6432;SDS011;3249;42.690;23.260;2023-05-07T14:04:23;5.17;;;4.97;;
6432;SDS011;3249;42.690;23.260;2023-05-07T14:06:52;5.87;;;5.27;;
6432;SDS011;3249;42.690;23.260;2023-05-07T14:09:21;5.47;;;5.17;;
6432;SDS011;3249;42.690;23.260;2023-05-07T14:11:50;5.63;;;5.23;;
6432;SDS011;3249;42.690;23.260;2023-05-07T14:14:21;5.07;;;4.67;;
6432;SDS011;3249;42.690;23.260;2023-05-07T14:16:51;5.13;;;4.83;;
6432;SDS011;3249;42.690;23.260;2023-05-07T14:19:20;5.40;;;4.90;;
6432;SDS011;3249;42.690;23.260;2023-05-07T14:21:50;5.07;;;4.80;;
6432;SDS011;3249;42.690;23.260;2023-05-07T14:24:19;5.90;;;5.50;;
6432;SDS011;3249;42.690;23.260;2023-05-07T14:26:48;5.53;;;5.00;;
6432;SDS011;3249;42.690;23.260;2023-05-07T14:29:17;5.53;;;5.10;;
6432;SDS011;3249;42.690;23.260;2023-05-07T14:31:50;5.40;;;5.00;;
6432;SDS011;3249;42.690;23.260;2023-05-07T14:34:19;5.23;;;4.93;;
6432;SDS011;3249;42.690;23.260;2023-05-07T14:36:48;4.93;;;4.50;;
6432;SDS011;3249;42.690;23.260;2023-05-07T14:39:17;5.10;;;4.80;;
6432;SDS011;3249;42.690;23.260;2023-05-07T14:41:47;5.93;;;4.70;;
6432;SDS011;3249;42.690;23.260;2023-05-07T14:44:16;5.53;;;5.13;;
6432;SDS011;3249;42.690;23.260;2023-05-07T14:46:45;5.43;;;5.13;;
6432;SDS011;3249;42.690;23.260;2023-05-07T14:49:16;5.00;;;4.70;;
6432;SDS011;3249;42.690;23.260;2023-05-07T14:51:46;4.93;;;4.60;;
6432;SDS011;3249;42.690;23.260;2023-05-07T14:54:15;6.03;;;5.13;;
6432;SDS011;3249;42.690;23.260;2023-05-07T14:56:44;5.07;;;4.67;;
6432;SDS011;3249;42.690;23.260;2023-05-07T14:59:13;4.70;;;4.50;;
6432;SDS011;3249;42.690;23.260;2023-05-07T15:01:44;5.07;;;4.80;;
6432;SDS011;3249;42.690;23.260;2023-05-07T15:04:16;5.20;;;4.73;;
6432;SDS011;3249;42.690;23.260;2023-05-07T15:06:45;4.87;;;4.47;;
6432;SDS011;3249;42.690;23.260;2023-05-07T15:09:14;5.07;;;4.73;;
6432;SDS011;3249;42.690;23.260;2023-05-07T15:11:43;5.60;;;5.10;;
6432;SDS011;3249;42.690;23.260;2023-05-07T15:14:12;5.77;;;5.33;;
6432;SDS011;3249;42.690;23.260;2023-05-07T15:16:41;4.93;;;4.63;;
6432;SDS011;3249;42.690;23.260;2023-05-07T15:19:11;5.47;;;5.17;;
6432;SDS011;3249;42.690;23.260;2023-05-07T15:21:42;5.27;;;4.97;;
6432;SDS011;3249;42.690;23.260;2023-05-07T15:24:11;5.20;;;4.83;;
6432;SDS011;3249;42.690;23.260;2023-05-07T15:26:41;5.50;;;4.90;;
6432;SDS011;3249;42.690;23.260;2023-05-07T15:29:10;5.30;;;4.80;;